createdAt,value
2022-09-09T00:00:04.302Z,13.56
2022-09-09T00:01:04.326Z,13.56
2022-09-09T00:02:04.379Z,13.56
2022-09-09T00:03:04.511Z,13.56
2022-09-09T00:04:04.298Z,13.56
2022-09-09T00:05:04.306Z,13.50
2022-09-09T00:06:04.383Z,13.50
2022-09-09T00:07:04.460Z,13.50
2022-09-09T00:08:04.467Z,13.56
2022-09-09T00:09:03.498Z,13.56
2022-09-09T00:10:03.771Z,13.56
2022-09-09T00:11:03.777Z,13.56
2022-09-09T00:12:03.755Z,13.56
2022-09-09T00:13:03.745Z,13.56
2022-09-09T00:14:03.668Z,13.56
2022-09-09T00:15:03.702Z,13.62
2022-09-09T00:16:03.804Z,13.62
2022-09-09T00:17:03.831Z,13.62
2022-09-09T00:18:03.827Z,13.69
2022-09-09T00:19:03.903Z,13.69
2022-09-09T00:20:03.824Z,13.62
2022-09-09T00:21:04.064Z,13.62
2022-09-09T00:22:04.099Z,13.62
2022-09-09T00:23:04.148Z,13.62
2022-09-09T00:24:04.148Z,13.62
2022-09-09T00:25:04.144Z,13.62
2022-09-09T00:26:04.340Z,13.62
2022-09-09T00:27:04.312Z,13.62
2022-09-09T00:28:04.301Z,13.62
2022-09-09T00:29:04.322Z,13.62
2022-09-09T00:30:03.495Z,13.62
2022-09-09T00:31:03.566Z,13.62
2022-09-09T00:32:03.497Z,13.62
2022-09-09T00:33:03.594Z,13.62
2022-09-09T00:34:03.654Z,13.62
2022-09-09T00:35:03.673Z,13.62
2022-09-09T00:36:03.660Z,13.62
2022-09-09T00:37:03.737Z,13.62
2022-09-09T00:38:03.837Z,13.62
2022-09-09T00:39:03.842Z,13.62
2022-09-09T00:40:04.375Z,13.62
2022-09-09T00:41:04.460Z,13.62
2022-09-09T00:42:03.515Z,13.62
2022-09-09T00:43:03.510Z,13.62
2022-09-09T00:44:03.589Z,13.69
2022-09-09T00:45:03.668Z,13.69
2022-09-09T00:46:03.730Z,13.69
2022-09-09T00:47:03.760Z,13.69
2022-09-09T00:48:03.836Z,13.69
2022-09-09T00:49:03.739Z,13.69
2022-09-09T00:50:03.822Z,13.69
2022-09-09T00:51:04.070Z,13.69
2022-09-09T00:52:04.014Z,13.69
2022-09-09T00:53:04.072Z,13.69
2022-09-09T00:54:04.073Z,13.69
2022-09-09T00:55:04.159Z,13.69
2022-09-09T00:56:04.157Z,13.69
2022-09-09T00:57:04.225Z,13.69
2022-09-09T00:58:04.382Z,13.75
2022-09-09T00:59:04.305Z,13.75
2022-09-09T01:00:03.507Z,13.75
2022-09-09T01:01:03.674Z,13.75
2022-09-09T01:02:03.605Z,13.75
2022-09-09T01:03:03.671Z,13.75
2022-09-09T01:04:03.747Z,13.75
2022-09-09T01:05:03.831Z,13.81
2022-09-09T01:06:03.833Z,13.81
2022-09-09T01:07:03.824Z,13.88
2022-09-09T01:08:03.893Z,13.88
2022-09-09T01:09:04.074Z,13.88
2022-09-09T01:10:04.155Z,13.88
2022-09-09T01:11:03.595Z,13.88
2022-09-09T01:12:03.591Z,13.88
2022-09-09T01:13:03.741Z,13.88
2022-09-09T01:14:03.758Z,13.88
2022-09-09T01:15:03.818Z,13.88
2022-09-09T01:16:03.815Z,13.88
2022-09-09T01:17:03.949Z,13.88
2022-09-09T01:18:03.921Z,13.88
2022-09-09T01:19:03.984Z,13.88
2022-09-09T01:20:04.067Z,13.88
2022-09-09T01:21:04.079Z,13.81
2022-09-09T01:22:04.069Z,13.81
2022-09-09T01:23:04.147Z,13.81
2022-09-09T01:24:04.158Z,13.81
2022-09-09T01:25:04.237Z,13.88
2022-09-09T01:26:04.148Z,13.81
2022-09-09T01:27:04.157Z,13.81
2022-09-09T01:28:04.227Z,13.88
2022-09-09T01:29:04.310Z,13.88
2022-09-09T01:30:03.587Z,13.88
2022-09-09T01:31:03.615Z,13.88
2022-09-09T01:32:03.738Z,13.88
2022-09-09T01:33:03.838Z,13.88
2022-09-09T01:34:03.912Z,13.88
2022-09-09T01:35:04.015Z,13.88
2022-09-09T01:36:03.988Z,13.81
2022-09-09T01:37:04.141Z,13.88
2022-09-09T01:38:04.142Z,13.88
2022-09-09T01:39:04.146Z,13.88
2022-09-09T01:40:04.305Z,13.88
2022-09-09T01:41:04.237Z,13.88
2022-09-09T01:42:04.230Z,13.88
2022-09-09T01:43:04.316Z,13.88
2022-09-09T01:44:03.600Z,13.81
2022-09-09T01:45:03.595Z,13.81
2022-09-09T01:46:03.765Z,13.81
2022-09-09T01:47:03.586Z,13.81
2022-09-09T01:48:03.587Z,13.81
2022-09-09T01:49:03.751Z,13.81
2022-09-09T01:50:04.559Z,13.81
2022-09-09T01:51:04.378Z,13.81
2022-09-09T01:52:03.593Z,13.81
2022-09-09T01:53:03.582Z,13.81
2022-09-09T01:54:03.747Z,13.81
2022-09-09T01:55:03.740Z,13.81
2022-09-09T01:56:03.783Z,13.81
2022-09-09T01:57:03.819Z,13.75
2022-09-09T01:58:03.827Z,13.81
2022-09-09T01:59:03.816Z,13.75
2022-09-09T02:00:04.001Z,13.75
2022-09-09T02:01:04.217Z,13.75
2022-09-09T02:02:04.118Z,13.75
2022-09-09T02:03:04.219Z,13.75
2022-09-09T02:04:04.304Z,13.75
2022-09-09T02:05:04.296Z,13.75
2022-09-09T02:06:04.467Z,13.75
2022-09-09T02:07:03.503Z,13.75
2022-09-09T02:08:03.742Z,13.75
2022-09-09T02:09:03.825Z,13.75
2022-09-09T02:10:03.902Z,13.75
2022-09-09T02:11:04.058Z,13.69
2022-09-09T02:12:04.062Z,13.75
2022-09-09T02:13:04.062Z,13.75
2022-09-09T02:14:04.067Z,13.75
2022-09-09T02:15:04.059Z,13.69
2022-09-09T02:16:04.055Z,13.69
2022-09-09T02:17:04.290Z,13.69
2022-09-09T02:18:04.141Z,13.69
2022-09-09T02:19:04.309Z,13.69
2022-09-09T02:20:04.298Z,13.69
2022-09-09T02:21:04.384Z,13.62
2022-09-09T02:22:03.510Z,13.62
2022-09-09T02:23:03.758Z,13.62
2022-09-09T02:24:03.757Z,13.62
2022-09-09T02:25:03.822Z,13.62
2022-09-09T02:26:03.839Z,13.62
2022-09-09T02:27:03.822Z,13.62
2022-09-09T02:28:03.985Z,13.62
2022-09-09T02:29:03.990Z,13.62
2022-09-09T02:30:03.981Z,13.56
2022-09-09T02:31:04.043Z,13.56
2022-09-09T02:32:04.067Z,13.56
2022-09-09T02:33:04.064Z,13.56
2022-09-09T02:34:04.059Z,13.56
2022-09-09T02:35:04.062Z,13.62
2022-09-09T02:36:04.054Z,13.56
2022-09-09T02:37:04.075Z,13.56
2022-09-09T02:38:04.153Z,13.56
2022-09-09T02:39:04.142Z,13.62
2022-09-09T02:40:04.269Z,13.62
2022-09-09T02:41:04.401Z,13.62
2022-09-09T02:42:04.391Z,13.62
2022-09-09T02:43:04.392Z,13.62
2022-09-09T02:44:03.516Z,13.62
2022-09-09T02:45:03.675Z,13.69
2022-09-09T02:46:03.768Z,13.75
2022-09-09T02:47:03.823Z,13.75
2022-09-09T02:48:03.745Z,13.75
2022-09-09T02:49:03.831Z,13.69
2022-09-09T02:50:03.820Z,13.69
2022-09-09T02:51:03.741Z,13.75
2022-09-09T02:52:03.911Z,13.75
2022-09-09T02:53:04.224Z,13.75
2022-09-09T02:54:04.219Z,13.75
2022-09-09T02:55:04.303Z,13.75
2022-09-09T02:56:04.308Z,13.75
2022-09-09T02:57:04.466Z,13.75
2022-09-09T02:58:03.507Z,13.75
2022-09-09T02:59:03.591Z,13.75
2022-09-09T03:00:03.667Z,13.75
2022-09-09T03:01:03.871Z,13.75
2022-09-09T03:02:04.051Z,13.75
2022-09-09T03:03:03.999Z,13.75
2022-09-09T03:04:04.066Z,13.75
2022-09-09T03:05:04.150Z,13.75
2022-09-09T03:06:04.140Z,13.75
2022-09-09T03:07:04.157Z,13.75
2022-09-09T03:08:04.389Z,13.75
2022-09-09T03:09:04.385Z,13.75
2022-09-09T03:10:04.380Z,13.75
2022-09-09T03:11:03.512Z,13.75
2022-09-09T03:12:03.581Z,13.75
2022-09-09T03:13:03.912Z,13.75
2022-09-09T03:14:03.902Z,13.75
2022-09-09T03:15:04.081Z,13.75
2022-09-09T03:16:04.410Z,13.75
2022-09-09T03:17:04.230Z,13.69
2022-09-09T03:18:04.439Z,13.75
2022-09-09T03:19:03.497Z,13.75
2022-09-09T03:20:03.500Z,13.75
2022-09-09T03:21:03.591Z,13.75
2022-09-09T03:22:03.581Z,13.75
2022-09-09T03:23:03.661Z,13.75
2022-09-09T03:24:04.308Z,13.75
2022-09-09T03:25:04.458Z,13.75
2022-09-09T03:26:04.473Z,13.75
2022-09-09T03:27:03.580Z,13.75
2022-09-09T03:28:03.511Z,13.75
2022-09-09T03:29:03.574Z,13.75
2022-09-09T03:30:03.593Z,13.75
2022-09-09T03:31:03.667Z,13.75
2022-09-09T03:32:03.870Z,13.75
2022-09-09T03:33:03.827Z,13.69
2022-09-09T03:34:03.989Z,13.69
2022-09-09T03:35:03.936Z,13.69
2022-09-09T03:36:03.977Z,13.69
2022-09-09T03:37:04.067Z,13.69
2022-09-09T03:38:04.143Z,13.69
2022-09-09T03:39:04.329Z,13.69
2022-09-09T03:40:04.492Z,13.69
2022-09-09T03:41:03.504Z,13.69
2022-09-09T03:42:03.674Z,13.69
2022-09-09T03:43:03.680Z,13.69
2022-09-09T03:44:03.668Z,13.69
2022-09-09T03:45:03.669Z,13.69
2022-09-09T03:46:03.810Z,13.62
2022-09-09T03:47:03.850Z,13.69
2022-09-09T03:48:03.836Z,13.69
2022-09-09T03:49:03.931Z,13.69
2022-09-09T03:50:03.912Z,13.69
2022-09-09T03:51:03.910Z,13.69
2022-09-09T03:52:03.935Z,13.62
2022-09-09T03:53:03.992Z,13.62
2022-09-09T03:54:03.996Z,13.62
2022-09-09T03:55:04.090Z,13.62
2022-09-09T03:56:04.143Z,13.69
2022-09-09T03:57:04.150Z,13.62
2022-09-09T03:58:04.228Z,13.69
2022-09-09T03:59:04.239Z,13.62
2022-09-09T04:00:04.230Z,13.69
2022-09-09T04:01:04.344Z,13.62
2022-09-09T04:02:03.787Z,13.62
2022-09-09T04:03:03.827Z,13.69
2022-09-09T04:04:03.912Z,13.69
2022-09-09T04:05:03.917Z,13.69
2022-09-09T04:06:04.107Z,13.69
2022-09-09T04:07:04.070Z,13.69
2022-09-09T04:08:04.229Z,13.69
2022-09-09T04:09:04.315Z,13.69
2022-09-09T04:10:04.299Z,13.69
2022-09-09T04:11:04.482Z,13.75
2022-09-09T04:12:03.510Z,13.75
2022-09-09T04:13:03.599Z,13.75
2022-09-09T04:14:03.497Z,13.75
2022-09-09T04:15:03.669Z,13.75
2022-09-09T04:16:04.136Z,13.75
2022-09-09T04:17:04.232Z,13.81
2022-09-09T04:18:04.312Z,13.81
2022-09-09T04:19:04.391Z,13.81
2022-09-09T04:20:04.318Z,13.81
2022-09-09T04:21:04.393Z,13.81
2022-09-09T04:22:04.402Z,13.81
2022-09-09T04:23:04.339Z,13.81
2022-09-09T04:24:04.392Z,13.88
2022-09-09T04:25:04.014Z,13.88
2022-09-09T04:26:03.998Z,13.88
2022-09-09T04:27:03.980Z,13.88
2022-09-09T04:28:03.980Z,13.88
2022-09-09T04:29:04.060Z,13.88
2022-09-09T04:30:04.234Z,13.88
2022-09-09T04:31:04.262Z,13.88
2022-09-09T04:32:04.244Z,13.88
2022-09-09T04:33:04.225Z,13.88
2022-09-09T04:34:04.142Z,13.94
2022-09-09T04:35:04.225Z,13.94
2022-09-09T04:36:04.327Z,13.94
2022-09-09T04:37:04.463Z,13.94
2022-09-09T04:38:04.492Z,13.94
2022-09-09T04:39:04.472Z,13.94
2022-09-09T04:40:03.583Z,13.94
2022-09-09T04:41:03.591Z,14.00
2022-09-09T04:42:03.751Z,14.00
2022-09-09T04:43:03.592Z,14.00
2022-09-09T04:44:03.741Z,14.00
2022-09-09T04:45:03.666Z,14.00
2022-09-09T04:46:03.734Z,14.00
2022-09-09T04:47:03.576Z,14.00
2022-09-09T04:48:03.744Z,14.00
2022-09-09T04:49:03.739Z,14.00
2022-09-09T04:50:03.786Z,14.00
2022-09-09T04:51:03.844Z,14.00
2022-09-09T04:52:03.858Z,14.00
2022-09-09T04:53:03.832Z,14.00
2022-09-09T04:54:03.576Z,14.00
2022-09-09T04:55:03.670Z,14.00
2022-09-09T04:56:03.744Z,14.00
2022-09-09T04:57:03.927Z,14.00
2022-09-09T04:58:03.905Z,14.00
2022-09-09T04:59:03.997Z,14.00
2022-09-09T05:00:04.003Z,14.00
2022-09-09T05:01:04.186Z,14.00
2022-09-09T05:02:04.121Z,14.00
2022-09-09T05:03:04.232Z,14.06
2022-09-09T05:04:04.147Z,14.06
2022-09-09T05:05:04.317Z,14.06
2022-09-09T05:06:04.480Z,14.06
2022-09-09T05:07:04.465Z,14.06
2022-09-09T05:08:04.379Z,14.06
2022-09-09T05:09:03.594Z,14.06
2022-09-09T05:10:03.668Z,14.06
2022-09-09T05:11:03.748Z,14.12
2022-09-09T05:12:03.738Z,14.12
2022-09-09T05:13:03.830Z,14.12
2022-09-09T05:14:03.832Z,14.19
2022-09-09T05:15:03.830Z,14.19
2022-09-09T05:16:04.027Z,14.19
2022-09-09T05:17:03.909Z,14.25
2022-09-09T05:18:04.070Z,14.25
2022-09-09T05:19:04.067Z,14.31
2022-09-09T05:20:07.699Z,14.31
2022-09-09T05:21:04.172Z,14.38
2022-09-09T05:22:04.396Z,14.38
2022-09-09T05:23:04.301Z,14.44
2022-09-09T05:24:04.466Z,14.44
2022-09-09T05:25:04.384Z,14.44
2022-09-09T05:26:04.469Z,14.44
2022-09-09T05:27:04.382Z,14.50
2022-09-09T05:28:04.061Z,14.50
2022-09-09T05:29:04.313Z,14.50
2022-09-09T05:30:04.393Z,14.56
2022-09-09T05:31:04.337Z,14.56
2022-09-09T05:32:04.482Z,14.62
2022-09-09T05:33:03.494Z,14.62
2022-09-09T05:34:03.661Z,14.62
2022-09-09T05:35:03.583Z,14.62
2022-09-09T05:36:03.588Z,14.69
2022-09-09T05:37:03.591Z,14.69
2022-09-09T05:38:03.587Z,14.69
2022-09-09T05:39:03.588Z,14.69
2022-09-09T05:40:03.706Z,14.69
2022-09-09T05:41:03.592Z,14.69
2022-09-09T05:42:03.657Z,14.69
2022-09-09T05:43:03.826Z,14.69
2022-09-09T05:44:04.227Z,14.75
2022-09-09T05:45:04.224Z,14.75
2022-09-09T05:46:04.226Z,14.75
2022-09-09T05:47:04.474Z,14.75
2022-09-09T05:48:05.364Z,14.75
2022-09-09T05:49:03.501Z,14.75
2022-09-09T05:50:03.588Z,14.75
2022-09-09T05:51:03.595Z,14.81
2022-09-09T05:52:03.663Z,14.81
2022-09-09T05:53:03.839Z,14.81
2022-09-09T05:54:03.908Z,14.81
2022-09-09T05:55:03.827Z,14.88
2022-09-09T05:56:03.829Z,14.88
2022-09-09T05:57:03.918Z,14.88
2022-09-09T05:58:03.915Z,14.88
2022-09-09T05:59:03.911Z,14.88
2022-09-09T06:00:04.004Z,14.88
2022-09-09T06:01:03.907Z,14.94
2022-09-09T06:02:04.064Z,14.94
2022-09-09T06:03:04.056Z,15.00
2022-09-09T06:04:03.994Z,15.00
2022-09-09T06:05:04.074Z,15.00
2022-09-09T06:06:04.136Z,15.00
2022-09-09T06:07:04.303Z,15.06
2022-09-09T06:08:04.391Z,15.06
2022-09-09T06:09:04.308Z,15.12
2022-09-09T06:10:03.445Z,15.12
2022-09-09T06:11:03.677Z,15.12
2022-09-09T06:12:03.668Z,15.19
2022-09-09T06:13:03.745Z,15.19
2022-09-09T06:14:03.906Z,15.19
2022-09-09T06:15:03.978Z,15.19
2022-09-09T06:16:03.965Z,15.25
2022-09-09T06:17:04.081Z,15.25
2022-09-09T06:18:03.994Z,15.25
2022-09-09T06:19:04.067Z,15.31
2022-09-09T06:20:04.314Z,15.31
2022-09-09T06:21:04.234Z,15.31
2022-09-09T06:22:04.321Z,15.38
2022-09-09T06:23:04.303Z,15.38
2022-09-09T06:24:04.460Z,15.38
2022-09-09T06:25:03.424Z,15.38
2022-09-09T06:26:03.584Z,15.44
2022-09-09T06:27:03.762Z,15.44
2022-09-09T06:28:03.669Z,15.50
2022-09-09T06:29:03.914Z,15.50
2022-09-09T06:30:03.838Z,15.50
2022-09-09T06:31:03.859Z,15.56
2022-09-09T06:32:04.001Z,15.56
2022-09-09T06:33:03.906Z,15.56
2022-09-09T06:34:03.992Z,15.62
2022-09-09T06:35:04.082Z,15.62
2022-09-09T06:36:04.157Z,15.62
2022-09-09T06:37:04.182Z,15.69
2022-09-09T06:38:04.313Z,15.69
2022-09-09T06:39:04.242Z,15.75
2022-09-09T06:40:04.371Z,15.75
2022-09-09T06:41:04.325Z,15.81
2022-09-09T06:42:04.306Z,15.81
2022-09-09T06:43:04.318Z,15.88
2022-09-09T06:44:04.398Z,15.94
2022-09-09T06:45:04.302Z,16.00
2022-09-09T06:46:04.399Z,16.06
2022-09-09T06:47:04.469Z,16.12
2022-09-09T06:48:04.395Z,16.25
2022-09-09T06:49:04.464Z,16.38
2022-09-09T06:50:03.598Z,16.50
2022-09-09T06:51:03.581Z,16.56
2022-09-09T06:52:03.601Z,16.62
2022-09-09T06:53:03.584Z,16.69
2022-09-09T06:54:03.502Z,16.81
2022-09-09T06:55:03.580Z,16.81
2022-09-09T06:56:03.666Z,16.88
2022-09-09T06:57:15.610Z,16.94
2022-09-09T06:58:03.913Z,17.00
2022-09-09T06:59:03.754Z,17.00
2022-09-09T07:00:03.825Z,17.06
2022-09-09T07:01:03.889Z,17.06
2022-09-09T07:02:03.748Z,17.12
2022-09-09T07:03:03.823Z,17.12
2022-09-09T07:04:03.993Z,17.12
2022-09-09T07:05:03.987Z,17.12
2022-09-09T07:06:03.907Z,17.12
2022-09-09T07:07:03.991Z,17.12
2022-09-09T07:08:03.987Z,17.19
2022-09-09T07:09:04.224Z,17.19
2022-09-09T07:10:04.317Z,17.19
2022-09-09T07:11:05.151Z,17.19
2022-09-09T07:12:03.592Z,17.19
2022-09-09T07:13:03.595Z,17.19
2022-09-09T07:14:03.742Z,17.19
2022-09-09T07:15:03.758Z,17.19
2022-09-09T07:16:03.809Z,17.19
2022-09-09T07:17:04.787Z,17.19
2022-09-09T07:18:03.911Z,17.19
2022-09-09T07:19:03.818Z,17.19
2022-09-09T07:20:03.899Z,17.19
2022-09-09T07:21:03.907Z,17.19
2022-09-09T07:22:03.900Z,17.19
2022-09-09T07:23:03.990Z,17.19
2022-09-09T07:24:04.071Z,17.19
2022-09-09T07:25:04.152Z,17.25
2022-09-09T07:26:04.150Z,17.25
2022-09-09T07:27:04.150Z,17.31
2022-09-09T07:28:04.239Z,17.38
2022-09-09T07:29:04.250Z,17.38
2022-09-09T07:30:04.316Z,17.44
2022-09-09T07:31:03.641Z,17.44
2022-09-09T07:32:03.598Z,17.50
2022-09-09T07:33:03.508Z,17.56
2022-09-09T07:34:03.672Z,17.62
2022-09-09T07:35:03.828Z,17.62
2022-09-09T07:36:03.663Z,17.69
2022-09-09T07:37:03.674Z,17.75
2022-09-09T07:38:03.671Z,17.75
2022-09-09T07:39:03.664Z,17.81
2022-09-09T07:40:03.863Z,17.81
2022-09-09T07:41:04.230Z,17.81
2022-09-09T07:42:04.398Z,17.88
2022-09-09T07:43:04.478Z,17.88
2022-09-09T07:44:04.487Z,17.94
2022-09-09T07:45:03.502Z,17.94
2022-09-09T07:46:03.653Z,17.94
2022-09-09T07:47:03.754Z,18.00
2022-09-09T07:48:03.907Z,18.00
2022-09-09T07:49:03.897Z,18.00
2022-09-09T07:50:03.903Z,18.06
2022-09-09T07:51:03.987Z,18.06
2022-09-09T07:52:04.262Z,18.06
2022-09-09T07:53:04.141Z,18.12
2022-09-09T07:54:04.166Z,18.12
2022-09-09T07:55:04.151Z,18.12
2022-09-09T07:56:04.340Z,18.12
2022-09-09T07:57:04.558Z,18.19
2022-09-09T07:58:03.503Z,18.19
2022-09-09T07:59:03.599Z,18.25
2022-09-09T08:00:03.752Z,18.31
2022-09-09T08:01:03.741Z,18.31
2022-09-09T08:02:03.801Z,18.38
2022-09-09T08:03:03.901Z,18.50
2022-09-09T08:04:03.834Z,18.56
2022-09-09T08:05:03.902Z,18.62
2022-09-09T08:06:03.908Z,18.75
2022-09-09T08:07:03.910Z,18.81
2022-09-09T08:08:04.064Z,18.88
2022-09-09T08:09:04.067Z,19.00
2022-09-09T08:10:04.073Z,19.00
2022-09-09T08:11:04.071Z,19.12
2022-09-09T08:12:04.070Z,19.19
2022-09-09T08:13:17.145Z,19.25
2022-09-09T08:14:04.149Z,19.31
2022-09-09T08:15:04.151Z,19.31
2022-09-09T08:16:04.157Z,19.38
2022-09-09T08:17:04.244Z,19.44
2022-09-09T08:18:04.231Z,19.50
2022-09-09T08:19:04.389Z,19.50
2022-09-09T08:20:04.306Z,19.56
2022-09-09T08:21:04.303Z,19.56
2022-09-09T08:22:04.312Z,19.62
2022-09-09T08:23:04.472Z,19.69
2022-09-09T08:24:04.381Z,19.75
2022-09-09T08:25:03.515Z,19.81
2022-09-09T08:26:03.588Z,19.81
2022-09-09T08:27:03.587Z,19.88
2022-09-09T08:28:03.587Z,19.94
2022-09-09T08:29:03.675Z,19.94
2022-09-09T08:30:03.745Z,19.94
2022-09-09T08:31:03.767Z,20.00
2022-09-09T08:32:03.764Z,20.00
2022-09-09T08:33:03.678Z,20.00
2022-09-09T08:34:03.753Z,20.06
2022-09-09T08:35:07.979Z,20.06
2022-09-09T08:36:03.902Z,20.06
2022-09-09T08:37:04.075Z,20.06
2022-09-09T08:38:06.515Z,20.12
2022-09-09T08:39:04.151Z,20.12
2022-09-09T08:40:04.292Z,20.12
2022-09-09T08:41:04.226Z,20.12
2022-09-09T08:42:04.216Z,20.12
2022-09-09T08:43:04.475Z,20.19
2022-09-09T08:44:04.391Z,20.19
2022-09-09T08:45:04.391Z,20.25
2022-09-09T08:46:04.543Z,20.25
2022-09-09T08:47:03.583Z,20.25
2022-09-09T08:48:03.671Z,20.25
2022-09-09T08:49:03.662Z,20.31
2022-09-09T08:50:03.669Z,20.31
2022-09-09T08:51:03.656Z,20.31
2022-09-09T08:52:03.672Z,20.31
2022-09-09T08:53:03.755Z,20.31
2022-09-09T08:54:03.666Z,20.31
2022-09-09T08:55:03.667Z,20.31
2022-09-09T08:56:03.820Z,20.31
2022-09-09T08:57:03.819Z,20.38
2022-09-09T08:58:03.915Z,20.38
2022-09-09T08:59:03.984Z,20.38
2022-09-09T09:00:03.895Z,20.38
2022-09-09T09:01:03.997Z,20.38
2022-09-09T09:02:03.932Z,20.38
2022-09-09T09:03:03.918Z,20.38
2022-09-09T09:04:03.989Z,20.38
2022-09-09T09:05:03.993Z,20.38
2022-09-09T09:06:03.982Z,20.38
2022-09-09T09:07:04.080Z,20.38
2022-09-09T09:08:03.989Z,20.38
2022-09-09T09:09:04.163Z,20.38
2022-09-09T09:10:06.850Z,20.38
2022-09-09T09:11:04.311Z,20.44
2022-09-09T09:12:04.309Z,20.44
2022-09-09T09:13:04.299Z,20.44
2022-09-09T09:14:03.590Z,20.44
2022-09-09T09:15:03.679Z,20.44
2022-09-09T09:16:03.702Z,20.44
2022-09-09T09:17:03.668Z,20.44
2022-09-09T09:18:03.669Z,20.44
2022-09-09T09:19:03.750Z,20.44
2022-09-09T09:20:03.903Z,20.44
2022-09-09T09:21:03.906Z,20.44
2022-09-09T09:22:04.077Z,20.50
2022-09-09T09:23:04.079Z,20.50
2022-09-09T09:24:03.987Z,20.50
2022-09-09T09:25:04.065Z,20.50
2022-09-09T09:26:04.248Z,20.50
2022-09-09T09:27:04.265Z,20.56
2022-09-09T09:28:04.385Z,20.56
2022-09-09T09:29:04.490Z,20.56
2022-09-09T09:30:22.784Z,20.56
2022-09-09T09:31:03.541Z,20.62
2022-09-09T09:32:03.674Z,20.62
2022-09-09T09:33:03.672Z,20.62
2022-09-09T09:34:03.704Z,20.62
2022-09-09T09:35:03.672Z,20.69
2022-09-09T09:36:03.662Z,20.69
2022-09-09T09:37:03.833Z,20.69
2022-09-09T09:40:04.289Z,20.69
2022-09-09T09:41:04.156Z,20.69
2022-09-09T09:42:05.163Z,20.75
2022-09-09T09:43:04.324Z,20.75
2022-09-09T09:44:04.396Z,20.75
2022-09-09T09:45:04.464Z,20.75
2022-09-09T09:46:17.431Z,20.81
2022-09-09T09:47:03.565Z,20.81
2022-09-09T09:48:07.278Z,20.81
2022-09-09T09:49:03.720Z,20.81
2022-09-09T09:50:03.722Z,20.81
2022-09-09T09:51:03.763Z,20.88
2022-09-09T09:52:03.668Z,20.88
2022-09-09T09:53:03.583Z,20.88
2022-09-09T09:54:03.672Z,20.88
2022-09-09T09:55:07.402Z,20.94
2022-09-09T09:56:03.747Z,20.94
2022-09-09T09:57:03.766Z,21.00
2022-09-09T09:59:06.126Z,21.06
2022-09-09T10:00:03.830Z,21.12
2022-09-09T10:01:04.010Z,21.19
2022-09-09T10:02:03.912Z,21.25
2022-09-09T10:03:03.898Z,21.25
2022-09-09T10:04:04.001Z,21.25
2022-09-09T10:05:04.118Z,21.31
2022-09-09T10:06:04.200Z,21.31
2022-09-09T10:07:04.160Z,21.31
2022-09-09T10:08:04.301Z,21.38
2022-09-09T10:09:04.318Z,21.38
2022-09-09T10:10:04.238Z,21.38
2022-09-09T10:11:04.316Z,21.38
2022-09-09T10:12:04.473Z,21.44
2022-09-09T10:13:04.377Z,21.44
2022-09-09T10:14:04.476Z,21.50
2022-09-09T10:15:03.522Z,21.56
2022-09-09T10:16:05.413Z,21.62
2022-09-09T10:17:03.674Z,21.62
2022-09-09T10:18:03.777Z,21.62
2022-09-09T10:19:03.758Z,21.62
2022-09-09T10:20:03.935Z,21.69
2022-09-09T10:21:03.902Z,21.69
2022-09-09T10:22:04.061Z,21.69
2022-09-09T10:23:04.235Z,21.75
2022-09-09T10:24:04.149Z,21.75
2022-09-09T10:25:04.320Z,21.81
2022-09-09T10:26:03.516Z,21.81
2022-09-09T10:27:03.495Z,21.88
2022-09-09T10:28:06.167Z,21.94
2022-09-09T10:29:03.633Z,22.00
2022-09-09T10:30:03.747Z,22.06
2022-09-09T10:31:03.723Z,22.06
2022-09-09T10:32:03.761Z,22.12
2022-09-09T10:33:03.767Z,22.12
2022-09-09T10:34:03.859Z,22.19
2022-09-09T10:35:03.820Z,22.25
2022-09-09T10:36:03.904Z,22.25
2022-09-09T10:37:04.000Z,22.25
2022-09-09T10:38:03.986Z,22.31
2022-09-09T10:39:04.148Z,22.31
2022-09-09T10:40:04.174Z,22.38
2022-09-09T10:41:04.238Z,22.38
2022-09-09T10:42:04.320Z,22.44
2022-09-09T10:43:04.223Z,22.44
2022-09-09T10:44:04.306Z,22.50
2022-09-09T10:45:04.387Z,22.56
2022-09-09T10:46:04.516Z,22.56
2022-09-09T10:47:08.011Z,22.56
2022-09-09T10:48:03.575Z,22.56
2022-09-09T10:49:03.758Z,22.62
2022-09-09T10:50:03.661Z,22.62
2022-09-09T10:51:04.525Z,22.62
2022-09-09T10:52:03.893Z,22.69
2022-09-09T10:53:03.741Z,22.69
2022-09-09T10:54:03.752Z,22.69
2022-09-09T10:55:03.918Z,22.69
2022-09-09T10:56:03.997Z,22.69
2022-09-09T10:57:04.145Z,22.69
2022-09-09T10:58:04.176Z,22.69
2022-09-09T10:59:04.225Z,22.69
2022-09-09T11:00:04.237Z,22.75
2022-09-09T11:01:04.360Z,22.75
2022-09-09T11:02:04.531Z,22.75
2022-09-09T11:03:03.523Z,22.81
2022-09-09T11:04:03.585Z,22.88
2022-09-09T11:05:03.822Z,22.94
2022-09-09T11:06:03.870Z,22.94
2022-09-09T11:07:04.222Z,22.94
2022-09-09T11:08:03.819Z,22.94
2022-09-09T11:09:03.823Z,22.94
2022-09-09T11:10:03.915Z,23.00
2022-09-09T11:11:04.307Z,23.00
2022-09-09T11:12:04.381Z,23.00
2022-09-09T11:13:04.929Z,23.00
2022-09-09T11:14:03.673Z,23.00
2022-09-09T11:15:03.676Z,23.00
2022-09-09T11:16:03.671Z,23.00
2022-09-09T11:17:03.870Z,23.06
2022-09-09T11:18:03.833Z,23.06
2022-09-09T11:19:03.828Z,23.06
2022-09-09T11:20:03.898Z,23.06
2022-09-09T11:21:03.980Z,23.06
2022-09-09T11:22:04.078Z,23.06
2022-09-09T11:23:04.070Z,23.06
2022-09-09T11:24:04.182Z,23.06
2022-09-09T11:25:04.231Z,23.06
2022-09-09T11:26:04.265Z,23.06
2022-09-09T11:27:04.299Z,23.06
2022-09-09T11:28:04.214Z,23.06
2022-09-09T11:29:04.986Z,23.06
2022-09-09T11:30:04.382Z,23.06
2022-09-09T11:31:04.350Z,23.06
2022-09-09T11:32:04.414Z,23.06
2022-09-09T11:33:05.198Z,23.12
2022-09-09T11:34:03.515Z,23.06
2022-09-09T11:35:03.513Z,23.12
2022-09-09T11:36:05.778Z,23.12
2022-09-09T11:37:03.608Z,23.12
2022-09-09T11:38:03.682Z,23.12
2022-09-09T11:39:03.586Z,23.12
2022-09-09T11:40:03.557Z,23.19
2022-09-09T11:41:04.317Z,23.19
2022-09-09T11:42:04.159Z,23.19
2022-09-09T11:43:04.161Z,23.25
2022-09-09T11:44:04.228Z,23.25
2022-09-09T11:45:04.068Z,23.19
2022-09-09T11:46:04.284Z,23.19
2022-09-09T11:47:04.158Z,23.19
2022-09-09T11:48:04.316Z,23.12
2022-09-09T11:49:04.141Z,23.12
2022-09-09T11:50:04.231Z,23.06
2022-09-09T11:51:04.390Z,23.06
2022-09-09T11:52:04.320Z,23.06
2022-09-09T11:53:04.309Z,23.06
2022-09-09T11:54:04.306Z,23.12
2022-09-09T11:55:04.302Z,23.12
2022-09-09T11:56:04.224Z,23.12
2022-09-09T11:57:04.310Z,23.06
2022-09-09T11:58:04.319Z,23.06
2022-09-09T11:59:04.311Z,23.06
2022-09-09T12:00:04.419Z,23.00
2022-09-09T12:01:04.461Z,23.00
2022-09-09T12:02:03.581Z,23.00
2022-09-09T12:03:03.699Z,23.00
2022-09-09T12:04:03.651Z,22.94
2022-09-09T12:05:03.802Z,22.94
2022-09-09T12:06:03.558Z,22.94
2022-09-09T12:07:03.676Z,22.94
2022-09-09T12:08:03.671Z,22.94
2022-09-09T12:09:03.912Z,22.94
2022-09-09T12:10:03.896Z,22.88
2022-09-09T12:11:03.919Z,22.88
2022-09-09T12:12:03.910Z,22.88
2022-09-09T12:13:03.988Z,22.88
2022-09-09T12:14:03.984Z,22.88
2022-09-09T12:15:04.003Z,22.88
2022-09-09T12:16:03.984Z,22.88
2022-09-09T12:17:04.070Z,22.88
2022-09-09T12:18:04.247Z,22.88
2022-09-09T12:19:04.070Z,22.88
2022-09-09T12:20:04.072Z,22.88
2022-09-09T12:21:04.149Z,22.88
2022-09-09T12:22:04.314Z,22.88
2022-09-09T12:23:04.313Z,22.88
2022-09-09T12:24:04.380Z,22.88
2022-09-09T12:25:04.321Z,22.88
2022-09-09T12:26:04.388Z,22.94
2022-09-09T12:27:04.400Z,22.94
2022-09-09T12:28:04.400Z,22.94
2022-09-09T12:29:04.304Z,22.88
2022-09-09T12:30:03.507Z,22.88
2022-09-09T12:31:03.578Z,22.88
2022-09-09T12:32:03.586Z,22.81
2022-09-09T12:33:03.678Z,22.81
2022-09-09T12:34:03.676Z,22.81
2022-09-09T12:35:03.655Z,22.81
2022-09-09T12:36:03.834Z,22.81
2022-09-09T12:37:03.830Z,22.81
2022-09-09T12:38:03.913Z,22.75
2022-09-09T12:39:03.752Z,22.75
2022-09-09T12:40:03.900Z,22.75
2022-09-09T12:41:03.754Z,22.75
2022-09-09T12:42:03.674Z,22.75
2022-09-09T12:43:03.670Z,22.75
2022-09-09T12:44:03.664Z,22.75
2022-09-09T12:45:03.668Z,22.75
2022-09-09T12:46:03.771Z,22.75
2022-09-09T12:47:03.679Z,22.75
2022-09-09T12:48:03.670Z,22.75
2022-09-09T12:49:03.812Z,22.75
2022-09-09T12:50:03.833Z,22.75
2022-09-09T12:51:03.775Z,22.75
2022-09-09T12:52:03.826Z,22.75
2022-09-09T12:53:03.992Z,22.69
2022-09-09T12:54:03.998Z,22.69
2022-09-09T12:55:03.996Z,22.69